Time;durP1;ratioP1;P1;durP2;ratioP2;P2;SDS_P1;SDS_P2;PMS_P1;PMS_P2;Temp;Humidity;BMP_temperature;BMP_pressure;BME280_temperature;BME280_humidity;BME280_pressure;Samples;Min_cycle;Max_cycle;Signal;HPM_P1;HPM_P2
2022/12/17 13:06:04;;;;;;;31.57;18.93;;;0.00;99.90;;;;;;4910192;29;20459;-72
2022/12/17 13:08:31;;;;;;;27.33;17.50;;;1.20;99.90;;;;;;4899977;29;20465;-73
2022/12/17 13:11:10;;;;;;;33.33;19.10;;;0.70;99.90;;;;;;4892072;29;20572;-72
2022/12/17 13:13:54;;;;;;;31.80;18.07;;;0.70;99.90;;;;;;4902086;29;20539;-74
2022/12/17 13:16:36;;;;;;;33.20;19.77;;;0.80;99.90;;;;;;4911037;29;20461;-72
2022/12/17 13:19:19;;;;;;;37.10;19.60;;;2.10;99.90;;;;;;4897944;29;21039;-72
2022/12/17 13:21:45;;;;;;;29.97;18.13;;;1.40;99.90;;;;;;4892648;29;20481;-72
2022/12/17 13:24:24;;;;;;;32.43;22.37;;;1.30;99.90;;;;;;4892023;29;20468;-72
2022/12/17 13:26:52;;;;;;;36.93;22.93;;;0.40;99.90;;;;;;4904660;29;21037;-72
2022/12/17 13:29:27;;;;;;;31.97;21.93;;;-0.90;99.90;;;;;;4906122;29;20495;-72
2022/12/17 13:32:09;;;;;;;34.53;21.00;;;-1.10;99.90;;;;;;4909565;29;20463;-72
2022/12/17 13:35:04;;;;;;;34.90;23.20;;;0.20;99.90;;;;;;4893083;29;20442;-73
2022/12/17 13:37:40;;;;;;;34.90;19.97;;;-0.40;99.90;;;;;;4897956;29;20484;-73
2022/12/17 13:40:22;;;;;;;32.93;20.60;;;-0.60;99.90;;;;;;4894396;29;20494;-72
2022/12/17 13:42:52;;;;;;;34.60;20.70;;;1.60;99.90;;;;;;4892476;29;20866;-71
2022/12/17 13:45:22;;;;;;;35.80;21.30;;;-0.10;99.90;;;;;;4903990;29;20467;-71
2022/12/17 13:47:54;;;;;;;32.90;20.50;;;0.80;99.90;;;;;;4901823;29;20961;-73
2022/12/17 13:50:24;;;;;;;35.80;23.60;;;-0.20;99.90;;;;;;4900960;29;20885;-72
2022/12/17 13:52:52;;;;;;;35.50;21.00;;;0.80;99.90;;;;;;4889914;29;20453;-70
2022/12/17 13:55:22;;;;;;;34.43;21.93;;;1.90;99.90;;;;;;4900087;29;20582;-71
2022/12/17 13:57:50;;;;;;;33.07;20.90;;;3.00;99.90;;;;;;4904230;29;20500;-71
2022/12/17 14:00:22;;;;;;;36.13;21.17;;;4.10;99.90;;;;;;4899892;29;20553;-71
2022/12/17 14:02:49;;;;;;;34.10;22.00;;;3.30;99.90;;;;;;4900371;29;20458;-71
2022/12/17 14:05:26;;;;;;;34.17;21.63;;;2.50;99.90;;;;;;4910411;29;20461;-70
2022/12/17 14:07:54;;;;;;;37.50;20.70;;;1.60;99.90;;;;;;4898678;29;20541;-70
2022/12/17 14:10:21;;;;;;;38.33;23.67;;;1.40;99.90;;;;;;4900803;29;20969;-69
2022/12/17 14:12:48;;;;;;;35.10;20.27;;;1.00;99.90;;;;;;4900976;29;20485;-69
2022/12/17 14:15:24;;;;;;;35.60;22.10;;;0.30;99.90;;;;;;4899573;29;20484;-72
2022/12/17 14:17:53;;;;;;;38.20;23.43;;;-0.10;99.90;;;;;;4896217;29;20498;-71
2022/12/17 14:20:22;;;;;;;38.23;24.23;;;-0.30;99.90;;;;;;4897602;29;20449;-71
2022/12/17 14:22:53;;;;;;;37.47;24.33;;;-0.40;99.90;;;;;;4899780;29;20471;-70
2022/12/17 14:25:22;;;;;;;38.27;21.87;;;-0.40;99.90;;;;;;4901401;29;20456;-69
2022/12/17 14:27:53;;;;;;;33.03;20.47;;;-0.50;99.90;;;;;;4901165;29;20572;-70
2022/12/17 14:30:23;;;;;;;35.43;21.93;;;-0.60;99.90;;;;;;4898204;29;20465;-70
2022/12/17 14:32:49;;;;;;;37.10;23.27;;;-0.80;99.90;;;;;;4900704;29;20471;-70
2022/12/17 14:35:25;;;;;;;39.53;22.57;;;-1.00;99.90;;;;;;4898441;29;20476;-69
2022/12/17 14:37:53;;;;;;;44.93;22.80;;;-1.10;99.90;;;;;;4898113;29;20913;-69
2022/12/17 14:40:20;;;;;;;35.67;22.13;;;-1.20;99.90;;;;;;4899128;29;20471;-71
2022/12/17 14:42:48;;;;;;;38.57;23.40;;;-1.30;99.90;;;;;;4898907;29;20459;-70
2022/12/17 14:45:24;;;;;;;38.47;23.20;;;-1.20;99.90;;;;;;4900907;29;21061;-71
2022/12/17 14:47:57;;;;;;;36.40;22.47;;;-1.30;99.90;;;;;;4897634;29;20555;-70
2022/12/17 14:50:28;;;;;;;38.47;22.57;;;-1.40;99.90;;;;;;4899445;29;20484;-71
2022/12/17 14:52:58;;;;;;;46.67;23.77;;;-1.60;99.90;;;;;;4900086;29;20466;-71
2022/12/17 14:55:31;;;;;;;39.40;22.73;;;-1.60;99.90;;;;;;4900700;29;20462;-71
2022/12/17 14:58:15;;;;;;;37.07;22.10;;;-1.80;99.90;;;;;;4909380;29;20506;-71
2022/12/17 15:00:44;;;;;;;41.93;25.50;;;-1.90;99.90;;;;;;4904908;29;20465;-71
2022/12/17 15:03:17;;;;;;;44.50;25.07;;;-2.00;99.90;;;;;;4891033;29;20526;-70
2022/12/17 15:05:47;;;;;;;37.40;23.10;;;-2.10;99.90;;;;;;4899092;29;20471;-71
2022/12/17 15:08:15;;;;;;;39.23;22.23;;;-2.10;99.90;;;;;;4908743;29;20464;-71
2022/12/17 15:10:42;;;;;;;41.30;22.27;;;-2.20;99.90;;;;;;4909598;29;20809;-70
2022/12/17 15:13:09;;;;;;;49.90;25.57;;;-2.30;99.90;;;;;;4908903;29;20477;-70
2022/12/17 15:15:36;;;;;;;37.13;20.77;;;-2.30;99.90;;;;;;4900177;29;20465;-71
2022/12/17 15:18:03;;;;;;;31.60;22.90;;;-2.40;99.90;;;;;;4899099;29;20503;-71
2022/12/17 15:20:30;;;;;;;42.33;24.60;;;-2.40;99.90;;;;;;4906821;29;20456;-70
2022/12/17 15:22:57;;;;;;;42.00;23.27;;;-2.40;99.90;;;;;;4905395;29;20468;-70
2022/12/17 15:25:25;;;;;;;40.83;25.37;;;-2.50;99.90;;;;;;4899560;29;20467;-70
2022/12/17 15:27:52;;;;;;;45.90;26.10;;;-2.50;99.90;;;;;;4895589;29;20506;-71
2022/12/17 15:30:19;;;;;;;42.53;25.90;;;-2.50;99.90;;;;;;4910323;29;20493;-70
2022/12/17 15:32:46;;;;;;;43.97;25.80;;;-2.60;99.90;;;;;;4900391;29;21019;-70
2022/12/17 15:35:14;;;;;;;42.43;25.40;;;-2.70;99.90;;;;;;4894205;29;20571;-70
2022/12/17 15:37:41;;;;;;;40.60;25.40;;;-2.70;99.90;;;;;;4891897;29;20480;-70
2022/12/17 15:40:10;;;;;;;41.20;26.33;;;-2.80;99.90;;;;;;4903428;29;20539;-70
2022/12/17 15:45:23;;;;;;;47.20;25.77;;;-2.80;99.90;;;;;;4892255;29;21158;-70
2022/12/17 15:47:50;;;;;;;41.70;25.43;;;-2.80;99.90;;;;;;4904463;29;20460;-73
2022/12/17 15:50:17;;;;;;;43.93;24.77;;;-2.80;99.90;;;;;;4919005;29;20782;-79
2022/12/17 21:54:17;;;;;;;32.27;15.33;;;-3.60;99.90;;;;;;5117090;23;20995;-80
2022/12/17 21:56:47;;;;;;;31.47;15.33;;;-3.70;99.90;;;;;;4911469;29;20893;-76
2022/12/17 21:59:15;;;;;;;33.30;15.97;;;-3.60;99.90;;;;;;4908782;29;20482;-77
2022/12/17 22:01:46;;;;;;;36.37;17.87;;;-3.60;99.90;;;;;;4908776;29;21118;-76
2022/12/17 22:04:18;;;;;;;31.03;16.77;;;-3.60;99.90;;;;;;4906556;29;20968;-76
2022/12/17 22:06:47;;;;;;;33.60;16.07;;;-3.60;99.90;;;;;;4907459;29;20977;-76
2022/12/17 22:09:21;;;;;;;39.43;17.30;;;-3.50;99.90;;;;;;4905159;29;20950;-79
2022/12/17 22:14:01;;;;;;;33.37;15.37;;;-3.50;99.90;;;;;;4890701;29;20519;-78
2022/12/17 22:14:35;;;;;;;26.63;12.70;;;-3.50;99.90;;;;;;4889658;29;20558;-76
2022/12/17 22:17:05;;;;;;;30.57;14.47;;;-3.50;99.90;;;;;;4885726;29;20467;-76
2022/12/17 22:19:36;;;;;;;21.03;11.40;;;-3.50;99.90;;;;;;4891078;29;20488;-76
2022/12/17 22:22:04;;;;;;;32.70;14.80;;;-3.60;99.90;;;;;;4890611;29;20507;-77
2022/12/17 22:24:34;;;;;;;19.60;10.67;;;-3.70;99.90;;;;;;4894199;29;20490;-77
2022/12/17 22:27:10;;;;;;;30.83;14.60;;;-3.70;99.90;;;;;;4889710;29;20526;-77
2022/12/17 22:35:52;;;;;;;33.47;14.50;;;-3.80;99.90;;;;;;4837801;29;20818;-77
2022/12/17 22:38:46;;;;;;;33.20;16.37;;;-3.80;99.90;;;;;;4837877;29;20882;-77
2022/12/17 22:44:01;;;;;;;31.03;15.10;;;-3.70;99.90;;;;;;4890659;29;20452;-76
2022/12/17 22:46:31;;;;;;;34.43;14.37;;;-3.70;99.90;;;;;;4891941;29;20488;-76
2022/12/17 22:49:03;;;;;;;25.73;13.70;;;-3.70;99.90;;;;;;4891613;29;20483;-76
2022/12/17 22:51:30;;;;;;;35.90;15.00;;;-3.70;99.90;;;;;;4891180;29;20623;-76
2022/12/17 22:54:00;;;;;;;32.00;13.63;;;-3.20;99.90;;;;;;4890217;29;20500;-75
2022/12/17 22:56:33;;;;;;;33.97;15.03;;;-3.80;99.90;;;;;;4890901;29;20465;-76
2022/12/17 22:59:00;;;;;;;29.03;15.10;;;-3.60;99.90;;;;;;4892312;29;20689;-76
2022/12/17 23:01:27;;;;;;;30.73;14.10;;;-3.80;99.90;;;;;;4891228;29;20456;-76
2022/12/17 23:03:55;;;;;;;36.87;15.30;;;-3.70;99.90;;;;;;4891499;29;20956;-76
2022/12/17 23:06:23;;;;;;;33.10;15.90;;;-3.80;99.90;;;;;;4891482;29;20542;-76
2022/12/17 23:08:53;;;;;;;43.60;16.30;;;-3.80;99.90;;;;;;4891150;29;20572;-76
2022/12/17 23:11:30;;;;;;;29.30;15.67;;;-3.80;99.90;;;;;;4885042;29;20457;-77
2022/12/17 23:13:58;;;;;;;37.20;18.57;;;-2.70;99.90;;;;;;4884459;29;20469;-78
2022/12/17 23:16:26;;;;;;;32.33;18.57;;;-3.80;99.90;;;;;;4888960;29;20546;-78
2022/12/17 23:18:54;;;;;;;40.53;19.30;;;-3.80;99.90;;;;;;4892276;29;20543;-79
2022/12/17 23:21:24;;;;;;;40.73;17.10;;;-3.80;99.90;;;;;;4898671;29;20454;-78
2022/12/17 23:23:51;;;;;;;32.83;16.50;;;-3.80;99.90;;;;;;4890485;29;20487;-80
2022/12/17 23:26:22;;;;;;;33.87;15.20;;;-3.80;99.90;;;;;;4896175;29;20476;-78
2022/12/17 23:28:52;;;;;;;31.57;16.03;;;-3.80;99.90;;;;;;4886570;29;20966;-79
2022/12/17 23:31:21;;;;;;;35.27;16.17;;;-3.90;99.90;;;;;;4893949;29;21096;-77
2022/12/17 23:33:49;;;;;;;26.83;13.77;;;-3.90;99.90;;;;;;4885671;29;21044;-78
2022/12/17 23:36:26;;;;;;;36.90;16.40;;;-4.00;99.90;;;;;;4893156;29;20980;-80
2022/12/17 23:39:06;;;;;;;29.63;14.90;;;-4.00;99.90;;;;;;4883700;29;20597;-78
2022/12/17 23:41:37;;;;;;;37.23;14.67;;;-4.10;99.90;;;;;;4894161;29;20897;-79
2022/12/17 23:44:05;;;;;;;37.50;15.40;;;-4.20;99.90;;;;;;4894442;29;20984;-77
2022/12/17 23:46:38;;;;;;;35.67;16.47;;;-4.20;99.90;;;;;;4907751;29;20467;-78
2022/12/17 23:49:05;;;;;;;35.30;15.30;;;-4.20;99.90;;;;;;4899045;29;20532;-79
2022/12/17 23:51:35;;;;;;;22.93;11.63;;;-4.20;99.90;;;;;;4896309;29;20469;-78
2022/12/17 23:54:09;;;;;;;34.30;15.57;;;-4.20;99.90;;;;;;4897336;29;20485;-78
2022/12/17 23:56:36;;;;;;;44.73;16.90;;;-4.20;99.90;;;;;;4895943;29;20495;-78
2022/12/17 23:59:03;;;;;;;44.73;19.90;;;-4.30;99.90;;;;;;4896665;29;20493;-77
